Terminal Aerodrome Forecast
Issued by NWS Cleveland, OH

Home | Current Version | Previous Version | Graphics & Text | Print | Product List | Glossary On
Versions: 1 2 3 4 5 6 7 8 9 10 11 12 13 14 15
000
FTUS41 KCLE 270200 AAA
TAFCAK
TAF AMD
KCAK 270214Z 2702/2724 35008KT 6SM -SHSN BKN018 OVC100
      TEMPO 2702/2705 2SM -SHSN
     FM270700 32004KT P6SM SCT025
     FM271400 27006KT P6SM SKC=

USA.gov is the U.S. government's official web portal to all federal, state and local government web resources and services.